createdAt,value
2019-03-11T00:00:55.451Z,41.06
2019-03-11T00:01:59.923Z,41.43
2019-03-11T00:03:04.671Z,41.46
2019-03-11T00:04:10.664Z,41.26
2019-03-11T00:05:16.049Z,41.56
2019-03-11T00:06:21.666Z,41.44
2019-03-11T00:07:26.183Z,41.00
2019-03-11T00:08:33.075Z,40.89
2019-03-11T00:09:37.894Z,40.45
2019-03-11T00:10:43.013Z,40.64
2019-03-11T00:11:48.301Z,40.41
2019-03-11T00:12:52.821Z,40.53
2019-03-11T00:13:57.780Z,40.75
2019-03-11T00:15:02.479Z,40.26
2019-03-11T00:16:07.296Z,40.74
2019-03-11T00:17:11.982Z,40.69
2019-03-11T00:18:17.021Z,40.94
2019-03-11T00:19:22.287Z,41.44
2019-03-11T00:20:26.959Z,40.89
2019-03-11T00:21:32.238Z,41.47
2019-03-11T00:22:37.594Z,41.42
2019-03-11T00:23:42.870Z,41.66
2019-03-11T00:24:48.171Z,42.57
2019-03-11T00:25:54.140Z,42.62
2019-03-11T00:26:58.836Z,43.97
2019-03-11T00:28:04.200Z,43.33
2019-03-11T00:29:09.204Z,44.11
2019-03-11T00:30:14.194Z,44.39
2019-03-11T00:31:19.456Z,45.20
2019-03-11T00:32:24.521Z,45.30
2019-03-11T00:33:29.849Z,46.08
2019-03-11T00:34:35.414Z,45.89
2019-03-11T00:35:41.779Z,46.10
2019-03-11T00:36:46.725Z,45.66
2019-03-11T00:37:51.746Z,45.56
2019-03-11T00:38:56.447Z,45.08
2019-03-11T00:40:00.931Z,45.44
2019-03-11T00:41:05.406Z,45.72
2019-03-11T00:42:10.410Z,46.70
2019-03-11T00:43:15.086Z,46.31
2019-03-11T00:44:19.756Z,46.15
2019-03-11T00:45:25.417Z,45.84
2019-03-11T00:46:30.483Z,46.28
2019-03-11T00:47:35.723Z,46.75
2019-03-11T00:48:40.703Z,46.71
2019-03-11T00:49:46.061Z,47.50
2019-03-11T00:50:51.085Z,47.35
2019-03-11T00:51:55.578Z,48.36
2019-03-11T00:53:01.083Z,48.40
2019-03-11T00:54:06.370Z,49.29
2019-03-11T00:55:11.076Z,49.02
2019-03-11T00:56:16.359Z,48.86
2019-03-11T00:57:21.659Z,48.66
2019-03-11T00:58:26.976Z,48.49
2019-03-11T00:59:32.206Z,48.79
2019-03-11T01:00:37.508Z,48.87
2019-03-11T01:01:42.480Z,48.34
2019-03-11T01:02:47.735Z,47.33
2019-03-11T01:03:53.054Z,48.46
2019-03-11T01:04:58.086Z,48.36
2019-03-11T01:06:03.098Z,47.99
2019-03-11T01:07:08.479Z,47.71
2019-03-11T01:08:14.085Z,47.63
2019-03-11T01:09:19.382Z,47.88
2019-03-11T01:10:24.497Z,47.91
2019-03-11T01:11:30.093Z,47.16
2019-03-11T01:12:35.571Z,47.26
2019-03-11T01:13:40.548Z,47.54
2019-03-11T01:14:45.840Z,47.48
2019-03-11T01:15:50.539Z,47.83
2019-03-11T01:16:55.948Z,47.84
2019-03-11T01:18:00.384Z,48.01
2019-03-11T01:19:05.377Z,48.13
2019-03-11T01:20:10.535Z,48.06
2019-03-11T01:21:14.984Z,47.53
2019-03-11T01:22:20.013Z,48.08
2019-03-11T01:23:24.763Z,47.38
2019-03-11T01:24:30.040Z,48.09
2019-03-11T01:25:35.456Z,48.09
2019-03-11T01:26:40.433Z,48.30
2019-03-11T01:27:45.405Z,48.19
2019-03-11T01:28:50.240Z,48.05
2019-03-11T01:29:55.223Z,47.54
2019-03-11T01:31:00.233Z,47.61
2019-03-11T01:32:05.205Z,48.16
2019-03-11T01:33:09.890Z,47.53
2019-03-11T01:34:15.212Z,47.18
2019-03-11T01:35:20.697Z,46.90
2019-03-11T01:36:26.310Z,46.78
2019-03-11T01:37:31.263Z,46.93
2019-03-11T01:38:36.040Z,46.65
2019-03-11T01:39:41.034Z,45.84
2019-03-11T01:40:46.210Z,46.04
2019-03-11T01:41:51.443Z,45.60
2019-03-11T01:42:56.235Z,45.33
2019-03-11T01:44:01.245Z,46.01
2019-03-11T01:45:06.146Z,45.99
2019-03-11T01:46:11.136Z,46.08
2019-03-11T01:47:16.749Z,45.74
2019-03-11T01:48:21.468Z,45.32
2019-03-11T01:49:26.524Z,45.31
2019-03-11T01:50:31.242Z,45.35
2019-03-11T01:51:36.490Z,45.13
2019-03-11T01:52:41.494Z,44.83
2019-03-11T01:53:46.508Z,44.91
2019-03-11T01:54:51.271Z,44.79
2019-03-11T01:55:56.273Z,44.66
2019-03-11T01:57:01.055Z,44.51
2019-03-11T01:58:05.803Z,44.56
2019-03-11T01:59:11.115Z,44.29
2019-03-11T02:00:16.355Z,44.09
2019-03-11T02:01:21.860Z,44.48
2019-03-11T02:02:27.138Z,44.67
2019-03-11T02:03:32.647Z,44.25
2019-03-11T02:04:37.737Z,44.57
2019-03-11T02:05:43.197Z,44.20
2019-03-11T02:06:47.946Z,44.35
2019-03-11T02:07:53.211Z,43.71
2019-03-11T02:08:58.146Z,43.83
2019-03-11T02:10:02.848Z,43.56
2019-03-11T02:11:07.783Z,43.70
2019-03-11T02:12:12.886Z,43.51
2019-03-11T02:13:17.867Z,44.11
2019-03-11T02:14:23.123Z,44.62
2019-03-11T02:15:28.146Z,44.64
2019-03-11T02:16:33.405Z,43.57
2019-03-11T02:17:38.768Z,44.13
2019-03-11T02:18:44.007Z,43.76
2019-03-11T02:19:48.769Z,44.12
2019-03-11T02:20:54.343Z,43.71
2019-03-11T02:21:59.086Z,43.81
2019-03-11T02:23:04.171Z,44.56
2019-03-11T02:24:09.671Z,44.31
2019-03-11T02:25:14.975Z,44.03
2019-03-11T02:26:19.979Z,44.98
2019-03-11T02:27:24.711Z,44.53
2019-03-11T02:28:30.008Z,44.94
2019-03-11T02:29:34.758Z,44.87
2019-03-11T02:30:39.516Z,45.77
2019-03-11T02:31:45.107Z,45.18
2019-03-11T02:32:50.102Z,45.09
2019-03-11T02:33:55.652Z,44.73
2019-03-11T02:35:01.137Z,44.72
2019-03-11T02:36:06.646Z,44.64
2019-03-11T02:37:11.955Z,44.77
2019-03-11T02:38:17.524Z,44.29
2019-03-11T02:39:22.563Z,44.35
2019-03-11T02:40:27.351Z,44.39
2019-03-11T02:41:32.923Z,44.29
2019-03-11T02:42:37.953Z,44.11
2019-03-11T02:43:42.765Z,44.26
2019-03-11T02:44:48.283Z,43.97
2019-03-11T02:45:52.995Z,44.70
2019-03-11T02:46:58.042Z,44.63
2019-03-11T02:48:03.110Z,44.32
2019-03-11T02:49:08.650Z,44.83
2019-03-11T02:50:13.819Z,44.71
2019-03-11T02:51:19.100Z,44.97
2019-03-11T02:52:24.123Z,44.93
2019-03-11T02:53:29.690Z,44.74
2019-03-11T02:54:34.798Z,45.15
2019-03-11T02:55:39.840Z,44.72
2019-03-11T02:56:44.806Z,45.36
2019-03-11T02:57:49.491Z,44.06
2019-03-11T02:58:54.806Z,43.76
2019-03-11T03:00:00.297Z,43.52
2019-03-11T03:01:22.802Z,44.06
2019-03-11T03:02:44.018Z,44.19
2019-03-11T03:03:57.759Z,44.22
2019-03-11T03:05:09.730Z,44.07
2019-03-11T03:06:16.591Z,44.40
2019-03-11T03:07:21.581Z,43.76
2019-03-11T03:08:26.821Z,44.11
2019-03-11T03:09:32.306Z,44.11
2019-03-11T03:10:37.178Z,43.67
2019-03-11T03:11:41.960Z,44.05
2019-03-11T03:12:47.228Z,44.21
2019-03-11T03:13:52.250Z,43.86
2019-03-11T03:14:57.583Z,43.83
2019-03-11T03:16:02.977Z,43.88
2019-03-11T03:17:07.694Z,44.26
2019-03-11T03:18:12.793Z,44.22
2019-03-11T03:19:17.813Z,43.92
2019-03-11T03:20:23.336Z,43.66
2019-03-11T03:21:28.438Z,44.24
2019-03-11T03:22:33.929Z,44.41
2019-03-11T03:23:38.733Z,43.95
2019-03-11T03:24:44.023Z,44.72
2019-03-11T03:25:49.057Z,45.04
2019-03-11T03:26:54.378Z,45.32
2019-03-11T03:27:59.815Z,44.47
2019-03-11T03:29:04.603Z,44.09
2019-03-11T03:30:12.398Z,45.03
2019-03-11T03:31:17.671Z,44.73
2019-03-11T03:32:22.456Z,44.55
2019-03-11T03:33:27.682Z,44.41
2019-03-11T03:34:33.059Z,44.79
2019-03-11T03:35:37.787Z,44.67
2019-03-11T03:36:43.091Z,44.42
2019-03-11T03:37:47.817Z,44.45
2019-03-11T03:38:53.322Z,44.37
2019-03-11T03:39:58.290Z,44.70
2019-03-11T03:41:03.375Z,45.27
2019-03-11T03:42:12.617Z,45.31
2019-03-11T03:43:15.325Z,45.04
2019-03-11T03:44:20.704Z,44.79
2019-03-11T03:45:27.610Z,45.47
2019-03-11T03:46:32.590Z,47.09
2019-03-11T03:47:37.311Z,47.14
2019-03-11T03:48:42.779Z,47.12
2019-03-11T03:49:47.919Z,47.19
2019-03-11T03:50:52.680Z,46.99
2019-03-11T03:51:57.657Z,47.14
2019-03-11T03:53:02.726Z,47.04
2019-03-11T03:54:07.715Z,46.95
2019-03-11T03:55:13.575Z,47.62
2019-03-11T03:56:19.143Z,48.15
2019-03-11T03:57:24.123Z,47.52
2019-03-11T03:58:29.088Z,47.31
2019-03-11T03:59:33.982Z,46.52
2019-03-11T04:00:38.975Z,47.35
2019-03-11T04:01:43.808Z,46.92
2019-03-11T04:02:48.921Z,46.26
2019-03-11T04:03:54.203Z,45.79
2019-03-11T04:04:59.231Z,45.65
2019-03-11T04:06:04.209Z,45.70
2019-03-11T04:07:09.180Z,45.57
2019-03-11T04:08:14.257Z,45.34
2019-03-11T04:09:19.624Z,45.35
2019-03-11T04:10:24.644Z,45.17
2019-03-11T04:11:29.887Z,44.86
2019-03-11T04:12:34.832Z,44.37
2019-03-11T04:13:39.846Z,44.91
2019-03-11T04:14:44.680Z,44.49
2019-03-11T04:15:49.660Z,44.31
2019-03-11T04:16:54.746Z,44.37
2019-03-11T04:17:59.706Z,44.38
2019-03-11T04:19:04.957Z,43.96
2019-03-11T04:20:12.004Z,44.13
2019-03-11T04:21:17.107Z,43.87
2019-03-11T04:22:21.868Z,44.03
2019-03-11T04:23:26.582Z,43.69
2019-03-11T04:24:31.026Z,43.75
2019-03-11T04:25:36.932Z,43.91
2019-03-11T04:26:42.048Z,43.71
2019-03-11T04:27:47.702Z,43.58
2019-03-11T04:28:52.744Z,43.29
2019-03-11T04:29:57.688Z,43.33
2019-03-11T04:31:02.669Z,43.44
2019-03-11T04:32:07.421Z,43.31
2019-03-11T04:33:13.164Z,43.17
2019-03-11T04:34:18.175Z,43.29
2019-03-11T04:35:23.170Z,43.20
2019-03-11T04:36:30.386Z,43.19
2019-03-11T04:37:36.307Z,42.81
2019-03-11T04:38:41.587Z,42.67
2019-03-11T04:39:46.851Z,42.54
2019-03-11T04:40:51.831Z,42.68
2019-03-11T04:41:57.094Z,42.76
2019-03-11T04:43:02.505Z,43.33
2019-03-11T04:44:07.614Z,43.38
2019-03-11T04:45:13.533Z,43.53
2019-03-11T04:46:18.801Z,44.79
2019-03-11T04:47:24.403Z,47.26
2019-03-11T04:48:29.411Z,48.04
2019-03-11T04:49:34.800Z,47.16
2019-03-11T04:50:40.040Z,47.97
2019-03-11T04:51:45.364Z,48.42
2019-03-11T04:52:50.650Z,48.25
2019-03-11T04:53:55.935Z,48.07
2019-03-11T04:55:00.902Z,46.95
2019-03-11T04:56:06.175Z,47.73
2019-03-11T04:57:10.913Z,47.65
2019-03-11T04:58:15.875Z,46.55
2019-03-11T04:59:20.622Z,46.45
2019-03-11T05:00:27.053Z,46.63
2019-03-11T05:01:31.511Z,46.62
2019-03-11T05:02:36.971Z,46.66
2019-03-11T05:03:42.583Z,46.97
2019-03-11T05:04:47.589Z,46.16
2019-03-11T05:05:52.066Z,46.59
2019-03-11T05:06:57.204Z,47.32
2019-03-11T05:08:02.508Z,47.01
2019-03-11T05:09:07.868Z,46.68
2019-03-11T05:10:12.883Z,46.54
2019-03-11T05:11:17.918Z,47.01
2019-03-11T05:12:23.158Z,47.01
2019-03-11T05:13:28.591Z,46.55
2019-03-11T05:14:33.920Z,46.58
2019-03-11T05:15:38.880Z,46.43
2019-03-11T05:16:44.158Z,46.81
2019-03-11T05:17:49.052Z,46.71
2019-03-11T05:18:54.709Z,46.44
2019-03-11T05:20:00.412Z,46.66
2019-03-11T05:21:05.191Z,46.92
2019-03-11T05:22:11.138Z,46.87
2019-03-11T05:23:16.409Z,46.80
2019-03-11T05:24:21.724Z,46.76
2019-03-11T05:25:27.252Z,46.81
2019-03-11T05:26:32.560Z,46.37
2019-03-11T05:27:37.545Z,46.26
2019-03-11T05:28:42.907Z,45.91
2019-03-11T05:29:48.231Z,46.07
2019-03-11T05:30:53.555Z,46.05
2019-03-11T05:31:58.279Z,46.69
2019-03-11T05:33:03.528Z,46.46
2019-03-11T05:34:08.229Z,46.70
2019-03-11T05:35:13.222Z,46.77
2019-03-11T05:36:18.186Z,46.24
2019-03-11T05:37:23.154Z,46.41
2019-03-11T05:38:28.475Z,46.03
2019-03-11T05:39:33.179Z,45.70
2019-03-11T05:40:37.903Z,46.11
2019-03-11T05:41:43.506Z,46.48
2019-03-11T05:42:48.394Z,46.16
2019-03-11T05:43:53.657Z,45.67
2019-03-11T05:44:59.195Z,46.84
2019-03-11T05:46:03.875Z,46.19
2019-03-11T05:47:09.272Z,45.99
2019-03-11T05:48:14.399Z,47.29
2019-03-11T05:49:19.363Z,47.35
2019-03-11T05:50:24.718Z,48.24
2019-03-11T05:51:31.838Z,49.85
2019-03-11T05:52:36.731Z,48.89
2019-03-11T05:53:42.122Z,48.79
2019-03-11T05:54:47.132Z,49.33
2019-03-11T05:55:52.619Z,49.21
2019-03-11T05:56:59.127Z,49.25
2019-03-11T05:58:04.504Z,49.40
2019-03-11T05:59:10.206Z,49.11
2019-03-11T06:00:18.629Z,49.74
2019-03-11T06:01:23.877Z,48.96
2019-03-11T06:02:29.140Z,50.51
2019-03-11T06:03:34.782Z,53.20
2019-03-11T06:04:40.031Z,54.00
2019-03-11T06:05:44.775Z,53.26
2019-03-11T06:06:49.444Z,52.42
2019-03-11T06:07:54.416Z,52.85
2019-03-11T06:08:59.373Z,53.80
2019-03-11T06:10:04.442Z,52.25
2019-03-11T06:11:09.486Z,52.29
2019-03-11T06:12:14.498Z,50.47
2019-03-11T06:13:19.185Z,50.21
2019-03-11T06:14:24.750Z,50.73
2019-03-11T06:15:29.515Z,51.35
2019-03-11T06:16:34.608Z,50.79
2019-03-11T06:17:39.811Z,50.46
2019-03-11T06:18:47.427Z,50.72
2019-03-11T06:20:01.383Z,51.26
2019-03-11T06:21:40.407Z,51.62
2019-03-11T06:22:45.361Z,51.57
2019-03-11T06:23:50.059Z,52.21
2019-03-11T06:24:55.311Z,51.98
2019-03-11T06:26:00.882Z,51.16
2019-03-11T06:27:05.865Z,52.35
2019-03-11T06:28:11.494Z,51.46
2019-03-11T06:29:16.835Z,50.88
2019-03-11T06:30:21.960Z,50.94
2019-03-11T06:31:26.692Z,50.59
2019-03-11T06:32:31.433Z,51.04
2019-03-11T06:33:37.174Z,51.51
2019-03-11T06:34:42.250Z,52.04
2019-03-11T06:35:47.584Z,51.56
2019-03-11T06:36:53.081Z,51.12
2019-03-11T06:37:58.243Z,52.55
2019-03-11T06:39:06.113Z,52.17
2019-03-11T06:40:10.354Z,51.66
2019-03-11T06:41:15.919Z,50.58
2019-03-11T06:42:21.188Z,51.43
2019-03-11T06:43:26.761Z,51.47
2019-03-11T06:44:31.752Z,51.39
2019-03-11T06:45:37.010Z,51.49
2019-03-11T06:46:41.736Z,51.78
2019-03-11T06:47:46.565Z,51.19
2019-03-11T06:48:51.893Z,51.06
2019-03-11T06:49:56.805Z,51.43
2019-03-11T06:51:02.161Z,51.22
2019-03-11T06:52:07.225Z,52.40
2019-03-11T06:53:12.340Z,51.28
2019-03-11T06:54:17.597Z,51.53
2019-03-11T06:55:22.866Z,52.29
2019-03-11T06:56:27.504Z,51.97
2019-03-11T06:57:32.271Z,51.21
2019-03-11T06:58:37.649Z,51.31
2019-03-11T06:59:42.929Z,50.89
2019-03-11T07:00:47.645Z,51.83
2019-03-11T07:01:52.898Z,51.63
2019-03-11T07:02:58.283Z,51.86
2019-03-11T07:04:03.445Z,51.70
2019-03-11T07:05:18.740Z,51.07
2019-03-11T07:06:15.186Z,51.16
2019-03-11T07:07:20.207Z,51.99
2019-03-11T07:08:25.828Z,51.11
2019-03-11T07:09:30.923Z,50.88
2019-03-11T07:10:36.175Z,51.44
2019-03-11T07:11:41.433Z,50.67
2019-03-11T07:12:46.425Z,51.77
2019-03-11T07:13:51.764Z,50.91
2019-03-11T07:14:56.325Z,51.36
2019-03-11T07:16:01.494Z,51.07
2019-03-11T07:17:06.163Z,50.38
2019-03-11T07:18:11.127Z,50.52
2019-03-11T07:19:16.119Z,50.23
2019-03-11T07:20:21.269Z,50.53
2019-03-11T07:21:26.003Z,50.35
2019-03-11T07:22:31.559Z,51.01
2019-03-11T07:23:36.655Z,50.52
2019-03-11T07:24:41.897Z,51.01
2019-03-11T07:25:47.003Z,50.51
2019-03-11T07:26:52.059Z,50.24
2019-03-11T07:27:57.730Z,50.12
2019-03-11T07:29:02.223Z,50.10
2019-03-11T07:30:07.658Z,49.31
2019-03-11T07:31:12.900Z,49.75
2019-03-11T07:32:18.026Z,49.92
2019-03-11T07:33:23.511Z,49.93
2019-03-11T07:34:28.656Z,50.58
2019-03-11T07:35:33.744Z,49.49
2019-03-11T07:36:38.518Z,50.23
2019-03-11T07:37:43.789Z,49.51
2019-03-11T07:38:49.054Z,49.43
2019-03-11T07:39:54.650Z,50.10
2019-03-11T07:40:59.929Z,49.37
2019-03-11T07:42:04.939Z,48.54
2019-03-11T07:43:09.633Z,49.27
2019-03-11T07:44:15.074Z,49.44
2019-03-11T07:45:19.831Z,48.00
2019-03-11T07:46:24.608Z,48.69
2019-03-11T07:47:29.994Z,48.51
2019-03-11T07:48:34.943Z,48.33
2019-03-11T07:49:40.205Z,48.85
2019-03-11T07:50:45.506Z,47.85
2019-03-11T07:51:50.469Z,48.91
2019-03-11T07:52:55.458Z,48.17
2019-03-11T07:54:00.153Z,49.11
2019-03-11T07:55:05.000Z,48.74
2019-03-11T07:56:09.966Z,48.58
2019-03-11T07:57:14.806Z,48.39
2019-03-11T07:58:20.125Z,48.97
2019-03-11T07:59:25.336Z,48.64
2019-03-11T08:00:30.911Z,48.77
2019-03-11T08:01:36.020Z,49.29
2019-03-11T08:02:41.006Z,49.92
2019-03-11T08:03:46.144Z,49.68
2019-03-11T08:04:51.113Z,49.67
2019-03-11T08:05:56.662Z,49.79
2019-03-11T08:07:01.668Z,49.43
2019-03-11T08:08:06.795Z,49.46
2019-03-11T08:09:12.102Z,48.83
2019-03-11T08:10:16.928Z,48.41
2019-03-11T08:11:21.889Z,48.57
2019-03-11T08:12:26.597Z,48.34
2019-03-11T08:13:31.759Z,48.91
2019-03-11T08:14:36.953Z,48.28
2019-03-11T08:15:42.054Z,48.74
2019-03-11T08:16:47.044Z,48.70
2019-03-11T08:17:52.035Z,48.16
2019-03-11T08:18:56.846Z,48.35
2019-03-11T08:21:02.602Z,48.10
2019-03-11T08:59:12.920Z,47.54
2019-03-11T09:00:28.300Z,47.80
2019-03-11T09:01:33.059Z,48.60
2019-03-11T09:02:38.143Z,48.54
2019-03-11T09:03:42.863Z,47.69
2019-03-11T09:04:47.887Z,47.43
2019-03-11T09:05:53.213Z,48.10
2019-03-11T09:06:59.009Z,47.42
2019-03-11T09:08:04.003Z,47.63
2019-03-11T09:09:10.326Z,47.45
2019-03-11T09:10:15.146Z,47.37
2019-03-11T09:11:20.180Z,47.39
2019-03-11T09:12:25.726Z,47.83
2019-03-11T09:13:31.073Z,48.08
2019-03-11T09:14:36.478Z,48.39
2019-03-11T09:15:41.754Z,48.73
2019-03-11T09:16:47.085Z,48.72
2019-03-11T09:17:51.789Z,49.41
2019-03-11T09:18:56.504Z,48.83
2019-03-11T09:20:01.597Z,48.25
2019-03-11T09:21:06.599Z,49.14
2019-03-11T09:22:11.568Z,49.76
2019-03-11T09:23:16.696Z,49.39
2019-03-11T09:24:22.325Z,48.44
2019-03-11T09:25:27.453Z,48.07
2019-03-11T09:26:32.588Z,48.95
2019-03-11T09:27:37.087Z,48.41
2019-03-11T09:28:42.105Z,48.24
2019-03-11T09:29:47.179Z,48.44
2019-03-11T09:30:52.450Z,48.57
2019-03-11T09:31:57.404Z,48.69
2019-03-11T09:33:02.383Z,49.36
2019-03-11T09:34:07.359Z,49.53
2019-03-11T09:35:12.479Z,49.88
2019-03-11T09:36:17.608Z,49.30
2019-03-11T09:37:22.149Z,48.81
2019-03-11T09:38:27.147Z,49.02
2019-03-11T09:39:32.420Z,48.69
2019-03-11T09:40:37.431Z,49.44
2019-03-11T09:41:42.533Z,50.08
2019-03-11T09:42:47.260Z,49.10
2019-03-11T09:43:52.721Z,49.16
2019-03-11T09:44:57.711Z,49.04
2019-03-11T09:46:02.696Z,49.23
2019-03-11T09:47:07.925Z,48.39
2019-03-11T09:48:13.027Z,49.26
2019-03-11T09:49:17.752Z,49.39
2019-03-11T09:50:22.831Z,49.90
2019-03-11T09:51:27.525Z,49.60
2019-03-11T09:52:32.239Z,50.08
2019-03-11T09:53:40.443Z,50.04
2019-03-11T09:54:45.427Z,48.68
2019-03-11T09:55:50.445Z,48.83
2019-03-11T09:56:55.405Z,48.47
2019-03-11T09:58:00.435Z,48.95
2019-03-11T09:59:05.094Z,49.58
2019-03-11T10:00:16.184Z,49.49
2019-03-11T10:01:21.141Z,49.25
2019-03-11T10:02:26.133Z,48.54
2019-03-11T10:03:31.467Z,49.02
2019-03-11T10:04:36.718Z,48.32
2019-03-11T10:05:41.857Z,48.61
2019-03-11T10:06:46.841Z,48.08
2019-03-11T10:07:51.678Z,48.00
2019-03-11T10:08:57.239Z,48.06
2019-03-11T10:10:01.994Z,48.59
2019-03-11T10:11:06.740Z,47.87
2019-03-11T10:12:12.275Z,47.71
2019-03-11T10:13:17.249Z,46.99
2019-03-11T10:14:22.279Z,46.98
2019-03-11T10:15:27.669Z,46.37
2019-03-11T10:16:32.503Z,46.34
2019-03-11T10:17:37.236Z,46.01
2019-03-11T10:18:42.616Z,45.92
2019-03-11T10:19:47.684Z,45.68
2019-03-11T10:20:52.636Z,45.25
2019-03-11T10:21:58.009Z,45.71
2019-03-11T10:23:02.959Z,45.98
2019-03-11T10:24:07.590Z,46.11
2019-03-11T10:25:12.370Z,46.70
2019-03-11T10:26:17.325Z,46.61
2019-03-11T10:27:22.313Z,46.36
2019-03-11T10:28:27.186Z,45.61
2019-03-11T10:29:32.036Z,45.18
2019-03-11T10:30:37.134Z,43.85
2019-03-11T10:31:42.375Z,44.34
2019-03-11T10:32:46.888Z,45.66
2019-03-11T10:33:52.178Z,45.61
2019-03-11T10:34:57.407Z,45.91
2019-03-11T10:36:02.185Z,46.95
2019-03-11T10:37:07.136Z,45.48
2019-03-11T10:38:12.152Z,45.88
2019-03-11T10:39:17.783Z,46.27
2019-03-11T10:40:22.250Z,47.04
2019-03-11T10:41:27.319Z,46.41
2019-03-11T10:42:32.092Z,46.88
2019-03-11T10:43:39.057Z,45.72
2019-03-11T10:44:44.022Z,44.52
2019-03-11T10:45:49.053Z,44.07
2019-03-11T10:46:53.534Z,43.53
2019-03-11T10:47:58.285Z,43.92
2019-03-11T10:49:03.020Z,42.56
2019-03-11T10:50:08.757Z,41.86
2019-03-11T10:51:14.359Z,40.70
2019-03-11T10:52:19.072Z,40.17
2019-03-11T10:53:24.085Z,41.67
2019-03-11T10:54:29.116Z,41.27
2019-03-11T10:55:34.160Z,41.14
2019-03-11T10:56:38.851Z,41.24
2019-03-11T10:57:44.403Z,40.62
2019-03-11T10:58:49.693Z,39.33
2019-03-11T10:59:54.786Z,38.73
2019-03-11T11:01:00.062Z,38.81
2019-03-11T11:02:05.330Z,38.56
2019-03-11T11:03:10.396Z,39.08
2019-03-11T11:04:15.628Z,40.43
2019-03-11T11:05:20.379Z,40.20
2019-03-11T11:06:25.192Z,41.44
2019-03-11T11:07:29.702Z,41.88
2019-03-11T11:08:35.362Z,42.35
2019-03-11T11:09:40.338Z,42.76
2019-03-11T11:10:45.942Z,42.62
2019-03-11T11:11:51.086Z,42.56
2019-03-11T11:12:56.136Z,43.29
2019-03-11T11:14:01.690Z,43.31
2019-03-11T11:15:08.219Z,43.39
2019-03-11T11:16:12.951Z,42.34
2019-03-11T11:17:18.174Z,43.64
2019-03-11T11:18:23.236Z,44.34
2019-03-11T11:19:28.654Z,43.50
2019-03-11T11:20:33.622Z,43.55
2019-03-11T11:21:38.302Z,43.88
2019-03-11T11:22:43.425Z,43.74
2019-03-11T11:23:48.340Z,46.12
2019-03-11T11:24:53.410Z,44.24
2019-03-11T11:25:59.052Z,44.00
2019-03-11T11:27:03.537Z,43.45
2019-03-11T11:28:08.258Z,43.60
2019-03-11T11:29:13.000Z,42.47
2019-03-11T11:30:19.674Z,41.90
2019-03-11T11:31:24.445Z,42.27
2019-03-11T11:32:29.139Z,42.77
2019-03-11T11:33:34.116Z,41.18
2019-03-11T11:34:41.581Z,39.53
2019-03-11T11:35:46.884Z,39.14
2019-03-11T11:36:51.666Z,38.41
2019-03-11T11:37:56.726Z,37.96
2019-03-11T11:39:01.235Z,37.52
2019-03-11T11:40:07.308Z,36.87
2019-03-11T11:41:12.093Z,38.36
2019-03-11T11:42:17.272Z,38.00
2019-03-11T11:43:21.982Z,38.80
2019-03-11T11:44:27.257Z,38.36
2019-03-11T11:45:32.283Z,37.73
2019-03-11T11:46:37.384Z,38.09
2019-03-11T11:47:42.108Z,38.39
2019-03-11T11:48:47.180Z,37.95
2019-03-11T11:49:51.941Z,37.93
2019-03-11T11:50:56.397Z,36.68
2019-03-11T11:52:01.070Z,36.21
2019-03-11T11:53:06.050Z,33.40
2019-03-11T11:54:11.829Z,27.78
2019-03-11T11:55:17.079Z,23.83
2019-03-11T11:56:22.022Z,22.03
2019-03-11T11:57:26.700Z,21.49
2019-03-11T11:58:31.703Z,19.49
2019-03-11T11:59:37.734Z,18.69
2019-03-11T12:00:45.531Z,22.09
2019-03-11T12:02:03.797Z,22.62
2019-03-11T12:03:04.492Z,25.66
2019-03-11T12:04:09.460Z,25.75
2019-03-11T12:05:14.939Z,27.75
2019-03-11T12:06:19.376Z,28.35
2019-03-11T12:07:23.972Z,29.86
2019-03-11T12:08:29.202Z,30.84
2019-03-11T12:09:34.212Z,31.97
2019-03-11T12:10:39.656Z,32.85
2019-03-11T12:11:44.350Z,33.38
2019-03-11T12:12:49.139Z,34.39
2019-03-11T12:13:53.840Z,35.22
2019-03-11T12:14:59.146Z,35.90
2019-03-11T12:16:03.907Z,36.61
2019-03-11T12:17:08.745Z,37.08
2019-03-11T12:18:13.984Z,39.57
2019-03-11T12:19:19.252Z,39.34
2019-03-11T12:20:24.392Z,40.83
2019-03-11T12:21:29.643Z,39.79
2019-03-11T12:22:35.188Z,40.17
2019-03-11T12:23:46.466Z,39.21
2019-03-11T12:24:46.654Z,39.11
2019-03-11T12:25:52.110Z,40.35
2019-03-11T12:26:56.812Z,38.43
2019-03-11T12:28:02.288Z,39.02
2019-03-11T12:29:07.007Z,38.45
2019-03-11T12:30:15.419Z,37.84
2019-03-11T12:31:21.667Z,37.35
2019-03-11T12:32:26.580Z,38.10
2019-03-11T12:33:31.877Z,37.16
2019-03-11T12:34:37.241Z,37.35
2019-03-11T12:35:42.615Z,37.87
2019-03-11T12:36:47.348Z,38.37
2019-03-11T12:37:52.209Z,37.24
2019-03-11T12:38:56.894Z,37.78
2019-03-11T12:40:01.896Z,37.08
2019-03-11T12:41:06.614Z,36.59
2019-03-11T12:42:11.305Z,37.11
2019-03-11T12:43:16.028Z,36.34
2019-03-11T12:44:20.760Z,36.54
2019-03-11T12:45:25.828Z,36.61
2019-03-11T12:46:30.874Z,36.79
2019-03-11T12:47:38.103Z,36.22
2019-03-11T12:48:46.820Z,34.89
2019-03-11T12:49:51.529Z,34.92
2019-03-11T12:50:56.721Z,33.32
2019-03-11T12:52:01.512Z,33.36
2019-03-11T12:53:06.279Z,33.28
2019-03-11T12:54:11.827Z,33.36
2019-03-11T12:55:16.839Z,32.00
2019-03-11T12:56:22.590Z,33.20
2019-03-11T12:57:27.569Z,33.03
2019-03-11T12:58:41.101Z,32.33
2019-03-11T12:59:40.678Z,32.72
2019-03-11T13:00:46.360Z,32.60
2019-03-11T13:01:51.621Z,32.70
2019-03-11T13:02:56.621Z,31.69
2019-03-11T13:04:01.578Z,32.74
2019-03-11T13:05:06.717Z,32.63
2019-03-11T13:06:12.123Z,32.71
2019-03-11T13:07:17.112Z,32.50
2019-03-11T13:08:22.326Z,32.83
2019-03-11T13:09:27.304Z,32.74
2019-03-11T13:10:32.013Z,34.17
2019-03-11T13:11:37.135Z,34.43
2019-03-11T13:12:42.509Z,34.18
2019-03-11T13:13:47.266Z,33.88
2019-03-11T13:14:52.259Z,34.06
2019-03-11T13:15:56.965Z,33.95
2019-03-11T13:17:01.652Z,34.24
2019-03-11T13:18:34.888Z,33.78
2019-03-11T13:19:39.651Z,34.02
2019-03-11T13:20:44.622Z,34.29
2019-03-11T13:21:49.968Z,35.32
2019-03-11T13:22:55.055Z,34.99
2019-03-11T13:24:00.046Z,34.65
2019-03-11T13:25:04.949Z,34.42
2019-03-11T13:26:10.318Z,34.43
2019-03-11T13:27:14.964Z,34.17
2019-03-11T13:28:19.757Z,34.87
2019-03-11T13:29:24.976Z,34.31
2019-03-11T13:30:30.258Z,34.37
2019-03-11T13:31:35.723Z,34.22
2019-03-11T13:32:40.679Z,34.84
2019-03-11T13:33:45.146Z,34.14
2019-03-11T13:34:50.617Z,33.87
2019-03-11T13:35:56.680Z,34.43
2019-03-11T13:37:02.456Z,34.47
2019-03-11T13:38:07.726Z,34.44
2019-03-11T13:39:12.706Z,33.20
2019-03-11T13:40:17.934Z,34.20
2019-03-11T13:41:23.257Z,34.54
2019-03-11T13:42:28.513Z,34.57
2019-03-11T13:43:33.523Z,34.56
2019-03-11T13:44:38.716Z,34.12
2019-03-11T13:45:43.825Z,34.41
2019-03-11T13:46:49.184Z,34.30
2019-03-11T13:47:54.466Z,34.17
2019-03-11T13:48:59.412Z,35.13
2019-03-11T13:50:05.626Z,34.86
2019-03-11T13:51:10.870Z,35.32
2019-03-11T13:52:15.697Z,35.15
2019-03-11T13:53:20.431Z,34.64
2019-03-11T13:54:25.965Z,34.33
2019-03-11T13:55:31.063Z,34.39
2019-03-11T13:56:35.515Z,34.79
2019-03-11T13:57:41.435Z,34.13
2019-03-11T13:58:47.136Z,33.65
2019-03-11T13:59:52.126Z,33.87
2019-03-11T14:00:57.331Z,33.80
2019-03-11T14:02:02.318Z,33.93
2019-03-11T14:03:07.266Z,33.46
2019-03-11T14:04:11.762Z,33.98
2019-03-11T14:05:17.362Z,33.49
2019-03-11T14:06:22.932Z,34.42
2019-03-11T14:07:27.908Z,33.63
2019-03-11T14:08:33.168Z,33.42
2019-03-11T14:09:37.976Z,33.07
2019-03-11T14:10:42.939Z,33.75
2019-03-11T14:11:48.196Z,33.48
2019-03-11T14:12:53.597Z,33.98
2019-03-11T14:13:58.264Z,34.37
2019-03-11T14:15:02.705Z,34.51
2019-03-11T14:16:07.996Z,34.14
2019-03-11T14:17:13.027Z,34.36
2019-03-11T14:18:18.276Z,34.15
2019-03-11T14:19:23.551Z,34.14
2019-03-11T14:20:28.488Z,34.77
2019-03-11T14:21:33.783Z,34.60
2019-03-11T14:22:39.293Z,34.53
2019-03-11T14:23:44.808Z,34.63
2019-03-11T14:24:49.940Z,34.37
2019-03-11T14:25:54.931Z,34.72
2019-03-11T14:26:59.944Z,34.98
2019-03-11T14:28:04.711Z,34.66
2019-03-11T14:29:10.011Z,34.45
2019-03-11T14:30:14.823Z,34.42
2019-03-11T14:31:20.208Z,34.56
2019-03-11T14:32:25.160Z,34.16
2019-03-11T14:33:30.160Z,34.30
2019-03-11T14:34:35.137Z,34.39
2019-03-11T14:35:40.174Z,34.50
2019-03-11T14:36:44.973Z,34.54
2019-03-11T14:37:49.729Z,34.73
2019-03-11T14:38:54.706Z,34.50
2019-03-11T14:39:59.958Z,34.28